Etusivu
METAR-TAF:

METAR-TAF

Lentoasemat :

Ouargla, Algeria

Leveyspiiri: 31-55N, Pituuspiiri: 005-24E, korkeus merenpinnasta: 141 m

Tämänhetkinen sää

Tämä raportti tehtiin 1 tunti ja 4 minuuttia sitten, kello 11.00 UTC
Tuuli 20 kn etelästä/lounaasta
Lämpötila 30°C
Kosteus 12%
Ilmanpaine 1011 hPa
Näkyvyys: 8000 m

METAR: DAUU 011100Z 20020KT 8000 NSC 30/M02 Q1011

Aika: 13:04 (12:04 UTC)

Sääennuste

Tämä raportti tehtiin 1 tunti ja 4 minuuttia sitten, kello 11.00 UTC
Ennuste voimassa 01. päivästä klo 12 UTC - 01. päivään klo 21 UTC
Tuuli 15 kn etelästä/lounaasta
Näkyvyys: 8000 m
Todennäköisyys 40% :
Ajoittain
01. päivästä klo 12 UTC - 01. päivään klo 17 UTC
Tuuli 15 kn lounaasta puuskistuen 25 kn:hen
Näkyvyys: 4000 m
matalaa hiekkatuisku

TAF: DAUU 011100Z 0112/0121 20015KT 8000 NSC PROB40 TEMPO 0112/0117 22015G25KT 4000 DRSA

Säähavainnot ja -ennusteet yli 4000 lentoasemalta (METAR- ja TAF-raportit).

Käytössä olevat sääasemat on merkitty karttaan keltaisilla ja punaisilla pisteillä.

Aseta hiiri pisteen päälle nähdäksesi sääaseman nimen.

Klikkaa sitten nähdäksesi säähavainnot ja -ennusteet.

Kartan vaihtaminen: klikkaa mustalla rastilla varustettuja vihreitä pisteitä, niin voit zoomata sisään; viivalla varustettua vihreää pistettä, niin voit zoomata ulos tai vihreitä nuolia, niin pääset viereisille kartoille.


METAR-TAF: